Time;durP1;ratioP1;P1;durP2;ratioP2;P2;SDS_P1;SDS_P2;PMS_P1;PMS_P2;Temp;Humidity;BMP_temperature;BMP_pressure;BME280_temperature;BME280_humidity;BME280_pressure;Samples;Min_cycle;Max_cycle;Signal;HPM_P1;HPM_P2
2021/01/03 00:02:05;;;;;;;360.23;165.10;;;;;;;-0.76;91.95;98896.81;4179217;83;21188;-88
2021/01/03 00:08:07;;;;;;;296.37;138.03;;;;;;;-0.82;91.99;98889.96;4154259;85;21658;-88
2021/01/03 00:14:08;;;;;;;335.33;148.93;;;;;;;-0.88;91.65;98883.11;4180139;83;21584;-88
2021/01/03 00:20:16;;;;;;;334.07;157.27;;;;;;;-1.03;91.73;98879.94;4207534;84;21674;-88
2021/01/03 00:26:17;;;;;;;346.13;153.50;;;;;;;-1.05;91.93;98880.81;4212559;84;21237;-89
2021/01/03 00:32:19;;;;;;;362.00;164.17;;;;;;;-1.01;92.25;98883.94;4212822;82;21197;-89
2021/01/03 00:38:20;;;;;;;389.83;155.47;;;;;;;-1.05;92.21;98885.62;4280186;82;21213;-89
2021/01/03 00:44:22;;;;;;;343.33;152.67;;;;;;;-1.07;92.15;98894.55;4277718;82;21209;-88
2021/01/03 00:50:26;;;;;;;329.17;146.53;;;;;;;-1.15;92.43;98892.56;4271048;82;21227;-88
2021/01/03 00:56:27;;;;;;;366.97;160.47;;;;;;;-1.13;92.25;98893.07;4280189;82;21214;-89
2021/01/03 01:02:29;;;;;;;364.67;159.70;;;;;;;-1.15;91.93;98888.54;4275990;82;21177;-89
2021/01/03 01:08:30;;;;;;;347.90;156.00;;;;;;;-1.09;92.41;98883.84;4284181;82;21169;-89
2021/01/03 01:14:32;;;;;;;318.07;138.00;;;;;;;-1.14;91.99;98865.94;4278361;82;21147;-89
2021/01/03 01:20:34;;;;;;;360.53;163.93;;;;;;;-1.14;92.20;98865.94;4277168;82;21591;-89
2021/01/03 01:26:35;;;;;;;377.00;165.20;;;;;;;-1.22;92.50;98849.76;4282715;82;21630;-89
2021/01/03 01:32:38;;;;;;;357.33;163.57;;;;;;;-1.20;92.34;98843.52;4255253;82;22303;-88
2021/01/03 01:38:40;;;;;;;360.53;162.43;;;;;;;-1.25;92.51;98840.39;4283418;82;21176;-88
2021/01/03 01:44:41;;;;;;;352.37;165.33;;;;;;;-1.21;92.79;98840.59;4270499;82;21171;-88
2021/01/03 01:50:51;;;;;;;334.23;149.00;;;;;;;-1.19;92.32;98844.55;4273667;82;21654;-89
2021/01/03 01:57:22;;;;;;;311.10;145.53;;;;;;;-1.13;92.42;98838.54;4349116;80;21132;-88
2021/01/03 02:03:44;;;;;;;303.67;137.90;;;;;;;-1.07;92.44;98841.36;4349592;81;21163;-90
2021/01/03 02:10:14;;;;;;;253.93;116.90;;;;;;;-1.11;92.14;98833.10;4299755;80;21166;-89
2021/01/03 02:16:20;;;;;;;284.40;132.37;;;;;;;-1.19;92.28;98827.09;4350521;80;22382;-88
2021/01/03 02:22:39;;;;;;;217.97;102.62;;;;;;;-1.44;91.84;98807.51;4194317;84;21189;-89
2021/01/03 02:28:44;;;;;;;252.87;119.90;;;;;;;-1.44;91.84;98807.51;4200479;83;21201;-88
2021/01/03 02:34:48;;;;;;;297.90;134.00;;;;;;;-1.44;92.17;98816.91;4213403;84;21206;-88
2021/01/03 02:40:50;;;;;;;277.17;125.53;;;;;;;-1.42;92.26;98802.64;4180627;84;21678;-89
2021/01/03 02:46:55;;;;;;;269.30;125.17;;;;;;;-1.52;91.98;98802.07;4198145;84;21189;-89
2021/01/03 02:52:57;;;;;;;277.73;122.03;;;;;;;-1.57;92.17;98795.70;4194545;84;21175;-89
2021/01/03 02:58:58;;;;;;;270.47;124.70;;;;;;;-1.56;92.32;98785.77;4199912;84;21164;-89
2021/01/03 03:05:00;;;;;;;248.40;119.30;;;;;;;-1.52;92.59;98773.88;4195886;84;21191;-89
2021/01/03 03:11:01;;;;;;;255.80;123.10;;;;;;;-1.40;92.71;98776.83;4200902;84;21169;-88
2021/01/03 03:17:06;;;;;;;272.63;124.53;;;;;;;-1.40;92.12;98759.37;4202927;84;21187;-88
2021/01/03 03:23:08;;;;;;;244.63;109.93;;;;;;;-1.33;92.43;98747.69;4210622;84;21178;-88
2021/01/03 03:29:09;;;;;;;213.27;99.40;;;;;;;-1.41;92.12;98734.44;4198149;84;21302;-89
2021/01/03 03:35:12;;;;;;;179.47;86.83;;;;;;;-1.40;92.53;98742.73;4347213;80;21291;-88
2021/01/03 03:41:20;;;;;;;213.07;101.83;;;;;;;-1.34;92.81;98747.42;4343251;80;21145;-88
2021/01/03 03:47:21;;;;;;;210.03;98.73;;;;;;;-1.28;92.41;98735.49;4335060;81;21458;-89
2021/01/03 03:53:23;;;;;;;177.70;80.80;;;;;;;-1.30;92.50;98716.97;4346843;80;21590;-88
2021/01/03 03:59:26;;;;;;;239.33;110.37;;;;;;;-1.19;92.49;98708.14;4342638;81;21192;-88
2021/01/03 04:05:27;;;;;;;239.83;102.73;;;;;;;-1.34;92.84;98700.43;4348640;81;21157;-88
2021/01/03 04:11:29;;;;;;;172.73;81.47;;;;;;;-1.27;93.33;98727.13;4339491;81;21149;-89
2021/01/03 04:17:30;;;;;;;178.27;82.83;;;;;;;-1.20;92.92;98717.28;4336598;80;22365;-89
2021/01/03 04:23:32;;;;;;;169.87;80.03;;;;;;;-1.21;93.01;98707.64;4339936;81;21179;-88
2021/01/03 04:29:35;;;;;;;208.73;90.90;;;;;;;-1.24;93.26;98705.03;4331568;81;21113;-89
2021/01/03 04:35:37;;;;;;;144.67;69.60;;;;;;;-1.22;93.31;98703.38;4340264;81;21361;-88
2021/01/03 04:41:40;;;;;;;135.30;62.87;;;;;;;-1.23;92.84;98693.18;4345953;80;21176;-89
2021/01/03 04:48:02;;;;;;;128.80;63.33;;;;;;;-1.25;93.05;98695.94;4342001;80;21168;-88
2021/01/03 04:54:20;;;;;;;133.30;63.10;;;;;;;-1.23;93.28;98707.95;4576908;76;22910;-89
2021/01/03 05:00:28;;;;;;;129.23;63.33;;;;;;;-1.26;93.09;98701.85;4500259;77;21215;-90
2021/01/03 05:06:30;;;;;;;117.23;59.23;;;;;;;-1.31;92.98;98699.28;4506507;77;21161;-89
2021/01/03 05:12:37;;;;;;;135.53;65.57;;;;;;;-1.29;92.77;98704.34;4504348;77;21144;-89
2021/01/03 05:18:38;;;;;;;115.17;56.90;;;;;;;-1.35;93.14;98698.31;4506979;77;21571;-87
2021/01/03 05:24:45;;;;;;;127.63;60.53;;;;;;;-1.35;92.64;98692.14;4505889;77;21166;-88
2021/01/03 05:30:47;;;;;;;112.77;58.87;;;;;;;-1.36;93.10;98694.59;4499803;77;21627;-87
2021/01/03 05:36:53;;;;;;;107.87;50.57;;;;;;;-1.29;93.23;98697.63;4342436;80;21185;-88
2021/01/03 05:43:21;;;;;;;114.67;58.38;;;;;;;-1.24;93.17;98697.52;4347170;80;21149;-88
2021/01/03 05:49:26;;;;;;;121.70;58.87;;;;;;;-1.18;93.24;98705.16;4454076;78;21157;-88
2021/01/03 05:55:29;;;;;;;113.73;55.63;;;;;;;-1.22;92.85;98706.84;4385383;80;21214;-89
2021/01/03 06:01:36;;;;;;;139.93;66.77;;;;;;;-1.21;92.86;98686.16;4348654;80;21160;-87
2021/01/03 06:07:37;;;;;;;197.60;97.97;;;;;;;-1.17;92.96;98686.59;4384329;79;21323;-88
2021/01/03 06:13:53;;;;;;;181.53;87.10;;;;;;;-1.16;93.00;98700.25;4361968;79;21608;-87
2021/01/03 06:20:00;;;;;;;181.20;84.67;;;;;;;-1.13;92.68;98692.95;4341411;81;21153;-88
2021/01/03 06:26:16;;;;;;;198.37;92.30;;;;;;;-1.30;92.29;98679.94;4425212;79;21193;-88
2021/01/03 06:32:38;;;;;;;196.37;93.67;;;;;;;-1.44;92.46;98681.32;4361663;80;21228;-88
2021/01/03 06:39:05;;;;;;;190.67;88.77;;;;;;;-1.51;92.86;98675.59;4416276;79;21157;-87
2021/01/03 06:45:34;;;;;;;159.87;76.60;;;;;;;-1.48;92.80;98676.33;4384708;79;21154;-87
2021/01/03 06:52:03;;;;;;;146.67;71.07;;;;;;;-1.51;92.70;98643.92;4344364;80;21166;-87
2021/01/03 06:58:38;;;;;;;134.97;66.00;;;;;;;-1.48;93.16;98644.66;4345090;80;22476;-87
2021/01/03 07:04:39;;;;;;;127.53;61.03;;;;;;;-1.41;93.35;98659.80;4326246;80;21150;-87
2021/01/03 07:10:43;;;;;;;106.83;54.90;;;;;;;-1.30;93.61;98664.61;4344317;80;21159;-86
2021/01/03 07:17:04;;;;;;;99.70;51.60;;;;;;;-1.15;93.84;98658.08;4349352;80;21149;-87
2021/01/03 07:23:29;;;;;;;107.53;51.07;;;;;;;-1.03;93.53;98652.38;4351831;80;21146;-87
2021/01/03 07:29:31;;;;;;;100.57;46.73;;;;;;;-0.91;94.03;98631.10;4331812;80;21177;-87
2021/01/03 07:35:40;;;;;;;98.87;49.97;;;;;;;-0.69;94.25;98664.64;4330364;80;21638;-86
2021/01/03 07:41:44;;;;;;;92.97;46.87;;;;;;;-0.51;94.25;98658.80;4346792;80;21170;-88
2021/01/03 07:47:54;;;;;;;104.63;50.73;;;;;;;-0.35;94.30;98669.38;4349927;80;21157;-88
2021/01/03 07:53:55;;;;;;;123.03;59.47;;;;;;;-0.25;94.22;98664.50;4342892;80;21153;-89
2021/01/03 07:59:59;;;;;;;115.80;54.50;;;;;;;-0.14;94.36;98677.91;4337025;81;21199;-89
2021/01/03 08:06:10;;;;;;;105.03;53.37;;;;;;;-0.03;94.19;98679.75;4344561;80;21644;-88
2021/01/03 08:12:29;;;;;;;107.20;51.37;;;;;;;0.03;94.29;98686.59;4340784;81;21175;-88
2021/01/03 08:18:41;;;;;;;86.30;43.93;;;;;;;0.02;93.90;98680.18;4325833;81;21659;-87
2021/01/03 08:24:48;;;;;;;76.23;40.23;;;;;;;0.00;94.02;98669.16;4346713;81;21580;-88
2021/01/03 08:30:51;;;;;;;80.80;40.25;;;;;;;0.08;94.42;98697.76;4374628;80;21146;-89
2021/01/03 08:36:53;;;;;;;82.43;40.87;;;;;;;0.17;94.27;98703.95;4375039;80;21162;-90
2021/01/03 08:43:06;;;;;;;84.57;42.70;;;;;;;0.23;94.11;98702.69;4375946;80;21153;-88
2021/01/03 08:49:10;;;;;;;82.80;41.30;;;;;;;0.29;94.37;98707.61;4371950;80;21978;-89
2021/01/03 08:55:16;;;;;;;82.60;42.20;;;;;;;0.34;94.28;98721.47;4372877;80;21182;-88
2021/01/03 09:01:32;;;;;;;78.97;40.50;;;;;;;0.45;94.21;98709.29;4375024;80;21924;-90
2021/01/03 09:07:36;;;;;;;82.88;40.70;;;;;;;0.47;94.19;98725.36;4372480;80;21204;-90
2021/01/03 09:13:55;;;;;;;81.65;41.88;;;;;;;0.67;94.39;98715.88;4380646;80;21146;-90
2021/01/03 09:20:08;;;;;;;87.35;47.13;;;;;;;0.87;94.88;98707.15;4387856;80;21201;-89
2021/01/03 09:26:10;;;;;;;88.72;44.00;;;;;;;0.87;94.88;98707.15;4373689;80;21608;-90
2021/01/03 09:32:29;;;;;;;80.35;42.55;;;;;;;0.98;94.45;98722.69;4379373;80;21176;-90
2021/01/03 09:38:46;;;;;;;80.75;43.08;;;;;;;1.15;94.31;98721.31;4385827;80;21224;-90
2021/01/03 09:45:34;;;;;;;81.32;42.83;;;;;;;1.15;94.31;98721.31;4373231;80;21177;-91
2021/01/03 09:52:00;;;;;;;79.45;39.75;;;;;;;1.19;94.06;98726.30;4350708;80;21705;-90
2021/01/03 09:58:04;;;;;;;83.05;41.30;;;;;;;1.14;94.02;98717.02;4297975;81;21704;-90
2021/01/03 10:04:24;;;;;;;81.08;40.67;;;;;;;1.20;94.04;98717.11;4293971;82;21125;-91
2021/01/03 10:10:55;;;;;;;82.92;39.95;;;;;;;1.13;94.15;98703.86;4299178;81;21169;-90
2021/01/03 10:16:59;;;;;;;78.40;41.35;;;;;;;1.35;94.34;98702.30;4291216;81;21374;-91
2021/01/03 10:23:00;;;;;;;115.67;58.10;;;;;;;1.41;94.11;98686.17;4289233;81;21611;-90
2021/01/03 10:29:03;;;;;;;87.22;44.00;;;;;;;1.39;94.15;98663.58;4297223;81;21669;-91
2021/01/03 10:35:07;;;;;;;109.75;52.70;;;;;;;1.44;94.27;98682.29;4300314;81;21177;-90
2021/01/03 10:41:08;;;;;;;97.60;46.00;;;;;;;1.52;94.17;98694.16;4295591;81;21346;-90
2021/01/03 10:47:11;;;;;;;83.70;41.33;;;;;;;1.51;94.25;98683.14;4297198;81;22451;-89
2021/01/03 10:53:13;;;;;;;86.53;42.13;;;;;;;1.51;94.25;98683.14;4333577;79;21174;-90
2021/01/03 10:59:14;;;;;;;74.85;37.28;;;;;;;1.73;94.18;98690.19;4361229;79;21626;-90
2021/01/03 11:05:18;;;;;;;76.90;39.35;;;;;;;1.74;94.04;98687.16;4366205;80;21649;-89
2021/01/03 11:11:21;;;;;;;77.95;38.05;;;;;;;1.81;94.21;98646.98;4356949;79;21196;-89
2021/01/03 11:17:22;;;;;;;87.88;43.40;;;;;;;1.84;93.86;98634.73;4366092;79;21193;-89
2021/01/03 11:23:24;;;;;;;72.40;38.80;;;;;;;1.73;93.69;98665.36;4368198;80;21157;-90
2021/01/03 11:29:27;;;;;;;75.15;38.20;;;;;;;1.77;93.87;98649.31;4363152;79;21609;-90
2021/01/03 11:35:29;;;;;;;85.42;42.62;;;;;;;1.80;93.68;98648.11;4360712;79;21161;-89
2021/01/03 11:41:30;;;;;;;74.55;39.45;;;;;;;1.81;93.72;98628.09;4361525;80;21386;-90
2021/01/03 11:47:32;;;;;;;76.10;40.08;;;;;;;1.85;93.75;98630.94;4369330;80;21333;-90
2021/01/03 11:53:33;;;;;;;74.92;37.75;;;;;;;1.96;93.68;98634.26;4337395;80;21165;-90
2021/01/03 11:59:35;;;;;;;77.70;40.43;;;;;;;1.97;93.54;98653.95;4369884;80;21199;-91
2021/01/03 12:05:37;;;;;;;74.30;37.88;;;;;;;1.91;93.47;98648.52;4357931;79;21496;-90
2021/01/03 12:11:38;;;;;;;76.15;38.58;;;;;;;1.98;93.67;98658.23;4356915;79;21690;-91
2021/01/03 12:17:40;;;;;;;84.95;41.68;;;;;;;2.02;93.45;98657.24;4364053;79;21150;-90
2021/01/03 12:23:41;;;;;;;96.22;50.33;;;;;;;2.01;93.34;98647.58;4355346;80;21122;-90
2021/01/03 12:29:43;;;;;;;87.17;43.92;;;;;;;2.06;93.42;98637.14;4363728;79;21170;-90
2021/01/03 12:35:45;;;;;;;89.58;45.17;;;;;;;2.13;93.56;98653.63;4366686;79;21650;-90
2021/01/03 12:41:47;;;;;;;83.45;44.53;;;;;;;2.25;93.61;98653.70;4365301;80;21583;-89
2021/01/03 12:47:48;;;;;;;83.97;42.88;;;;;;;2.30;93.42;98647.52;4344795;80;21170;-90
2021/01/03 12:53:50;;;;;;;80.60;45.08;;;;;;;2.37;93.38;98652.41;4357488;79;21173;-90
2021/01/03 12:59:52;;;;;;;80.60;42.70;;;;;;;2.35;93.15;98637.88;4362857;80;21179;-90
2021/01/03 13:05:53;;;;;;;85.15;42.90;;;;;;;2.39;93.19;98638.02;4360498;80;21164;-90
2021/01/03 13:11:55;;;;;;;83.35;43.95;;;;;;;2.37;93.13;98634.30;4365588;80;21189;-90
2021/01/03 13:17:57;;;;;;;87.33;43.30;;;;;;;2.45;93.13;98628.59;4366423;80;21240;-89
2021/01/03 13:24:00;;;;;;;87.95;44.98;;;;;;;2.51;93.01;98629.97;4363821;79;21304;-88
2021/01/03 13:30:05;;;;;;;92.15;48.25;;;;;;;2.36;92.84;98627.33;4443870;78;21177;-89
2021/01/03 13:36:07;;;;;;;108.70;55.67;;;;;;;2.40;92.99;98620.68;4446993;78;21801;-89
2021/01/03 13:42:09;;;;;;;100.05;51.37;;;;;;;2.43;92.86;98610.01;4347668;80;21752;-89
2021/01/03 13:48:11;;;;;;;117.80;61.68;;;;;;;2.48;92.81;98617.12;4355461;80;21199;-87
2021/01/03 13:54:12;;;;;;;138.85;69.32;;;;;;;2.60;92.73;98619.89;4347620;80;21332;-88
2021/01/03 14:00:19;;;;;;;96.08;50.65;;;;;;;2.70;92.66;98604.60;4347741;80;21197;-88
2021/01/03 14:06:20;;;;;;;115.60;58.08;;;;;;;2.69;92.38;98615.20;4343877;81;21653;-87
2021/01/03 14:12:24;;;;;;;102.97;52.67;;;;;;;2.68;92.15;98614.39;4344685;81;21175;-90
2021/01/03 14:18:29;;;;;;;104.70;53.38;;;;;;;2.69;92.06;98617.31;4344425;81;21175;-91
2021/01/03 14:24:30;;;;;;;109.92;57.83;;;;;;;2.71;92.00;98619.72;4328254;81;21183;-89
2021/01/03 14:30:32;;;;;;;101.27;53.68;;;;;;;2.68;91.91;98613.05;4339950;81;21154;-89
2021/01/03 14:36:34;;;;;;;105.37;55.98;;;;;;;2.65;91.84;98611.56;4344378;81;21179;-90
2021/01/03 14:42:41;;;;;;;103.47;56.68;;;;;;;2.68;91.77;98628.46;4342268;81;21206;-89
2021/01/03 14:49:08;;;;;;;118.53;62.73;;;;;;;2.57;91.17;98622.68;4338650;80;21207;-88
2021/01/03 14:55:40;;;;;;;134.27;66.70;;;;;;;2.34;91.17;98624.16;4344982;81;21171;-87
2021/01/03 15:02:07;;;;;;;117.45;65.67;;;;;;;2.07;91.24;98601.71;4338531;81;21312;-87
2021/01/03 15:08:30;;;;;;;115.60;62.75;;;;;;;1.94;91.37;98610.08;4332710;81;21198;-89
2021/01/03 15:14:32;;;;;;;205.75;92.78;;;;;;;1.88;91.46;98617.55;4337413;81;21194;-87
2021/01/03 15:20:34;;;;;;;144.80;71.02;;;;;;;1.71;91.35;98601.47;4417327;79;21195;-89
2021/01/03 15:26:53;;;;;;;126.95;65.20;;;;;;;1.64;91.21;98614.70;4346526;81;21159;-87
2021/01/03 15:32:56;;;;;;;121.67;62.27;;;;;;;1.50;91.20;98618.95;4370977;80;21171;-88
2021/01/03 15:39:03;;;;;;;117.20;62.35;;;;;;;1.37;91.16;98611.09;4363066;80;21174;-88
2021/01/03 15:45:23;;;;;;;135.93;69.30;;;;;;;1.31;91.44;98613.19;4426576;79;21186;-87
2021/01/03 15:51:27;;;;;;;142.77;71.20;;;;;;;1.30;91.62;98612.94;4325750;80;21538;-89
2021/01/03 15:57:32;;;;;;;130.75;66.07;;;;;;;1.21;91.64;98601.39;4379814;80;21785;-89
2021/01/03 16:03:32;;;;;;;143.10;71.37;;;;;;;1.15;91.59;98600.55;4378841;80;21194;-89
2021/01/03 16:09:34;;;;;;;156.47;80.17;;;;;;;1.12;91.66;98603.88;4383305;80;21270;-89
2021/01/03 16:15:37;;;;;;;148.70;72.27;;;;;;;1.08;91.55;98596.22;4375177;80;21150;-89
2021/01/03 16:21:59;;;;;;;307.77;126.05;;;;;;;1.04;91.58;98580.44;4369205;80;21634;-88
2021/01/03 16:28:12;;;;;;;125.55;64.32;;;;;;;1.04;91.56;98601.45;4384094;80;21163;-90
2021/01/03 16:34:48;;;;;;;151.30;77.87;;;;;;;1.08;91.69;98594.88;4380439;80;21141;-90
2021/01/03 16:40:59;;;;;;;144.75;72.20;;;;;;;1.06;91.84;98602.48;4378120;80;21157;-89
2021/01/03 16:47:26;;;;;;;145.25;74.03;;;;;;;0.95;91.50;98598.55;4371794;80;21311;-88
2021/01/03 16:53:46;;;;;;;136.35;70.28;;;;;;;0.83;91.75;98603.24;4362573;80;21130;-91
2021/01/03 17:00:10;;;;;;;158.47;77.45;;;;;;;0.76;91.80;98612.94;4335482;81;21599;-88
2021/01/03 17:06:21;;;;;;;157.07;77.07;;;;;;;0.74;91.97;98613.25;4338536;81;21627;-88
2021/01/03 17:12:36;;;;;;;140.65;70.08;;;;;;;0.76;91.80;98607.00;4294666;81;21604;-90
2021/01/03 17:18:55;;;;;;;334.67;136.13;;;;;;;0.66;91.66;98595.20;4338004;81;21662;-90
2021/01/03 17:25:08;;;;;;;230.57;101.92;;;;;;;0.52;91.96;98616.13;4339785;81;21237;-88
2021/01/03 17:31:53;;;;;;;238.37;118.45;;;;;;;0.51;92.10;98619.14;4331614;81;21197;-88
2021/01/03 17:38:09;;;;;;;247.33;118.95;;;;;;;0.56;92.58;98612.25;4333140;81;21205;-89
2021/01/03 17:51:59;;;;;;;232.87;111.52;;;;;;;0.81;92.66;98592.56;4240244;81;21645;-88
2021/01/03 17:58:02;;;;;;;227.62;110.68;;;;;;;0.79;92.30;98622.52;4367955;80;21702;-88
2021/01/03 18:04:04;;;;;;;214.50;101.97;;;;;;;0.81;92.47;98638.38;4361083;80;21231;-89
2021/01/03 18:10:07;;;;;;;199.80;97.27;;;;;;;0.83;92.28;98636.92;4364331;80;21143;-89
2021/01/03 18:16:09;;;;;;;203.10;103.05;;;;;;;0.85;92.41;98652.78;4362726;80;21144;-89
2021/01/03 18:22:10;;;;;;;185.85;97.57;;;;;;;0.80;92.44;98653.73;4364308;79;21615;-89
2021/01/03 18:28:12;;;;;;;214.95;105.27;;;;;;;0.83;92.37;98659.83;4360181;80;21192;-87
2021/01/03 18:34:14;;;;;;;228.90;110.75;;;;;;;0.85;92.40;98646.84;4363505;80;21218;-90
2021/01/03 18:40:17;;;;;;;244.65;124.25;;;;;;;0.83;92.63;98656.37;4363617;80;21193;-88
2021/01/03 18:46:19;;;;;;;266.65;123.28;;;;;;;0.88;92.77;98651.59;4361743;79;21137;-89
2021/01/03 18:52:21;;;;;;;252.75;118.30;;;;;;;0.98;92.57;98657.20;4361522;80;21177;-90
2021/01/03 18:58:33;;;;;;;1319.57;604.04;;;;;;;1.01;92.47;98667.34;4350104;79;9999737;-89
2021/01/03 19:04:34;;;;;;;240.05;117.10;;;;;;;1.01;92.76;98681.62;4371222;80;21218;-88
2021/01/03 19:10:36;;;;;;;263.00;127.70;;;;;;;1.06;92.48;98690.09;4366280;80;21638;-88
2021/01/03 19:16:42;;;;;;;245.42;119.10;;;;;;;1.04;92.60;98695.80;4366099;79;21159;-88
2021/01/03 19:22:45;;;;;;;281.38;133.75;;;;;;;1.09;92.59;98688.90;4366392;80;21176;-87
2021/01/03 19:28:48;;;;;;;259.50;126.85;;;;;;;1.15;92.81;98701.64;4355221;80;21157;-88
2021/01/03 19:34:50;;;;;;;295.03;146.00;;;;;;;1.21;92.61;98715.19;4360185;79;21201;-88
2021/01/03 19:40:51;;;;;;;246.68;123.40;;;;;;;1.21;92.61;98715.19;4354645;80;21181;-88
2021/01/03 19:46:54;;;;;;;246.18;125.12;;;;;;;1.12;92.49;98723.30;4361623;80;21296;-89
2021/01/03 19:52:56;;;;;;;265.43;127.00;;;;;;;1.08;92.58;98714.83;4358311;79;21222;-88
2021/01/03 19:58:57;;;;;;;254.57;128.27;;;;;;;1.06;92.87;98707.61;4368899;80;21326;-88
2021/01/03 20:04:59;;;;;;;240.12;117.35;;;;;;;1.11;92.64;98706.10;4356413;79;21197;-89
2021/01/03 20:11:01;;;;;;;272.98;133.32;;;;;;;1.01;92.97;98719.36;4356914;79;21197;-90
2021/01/03 20:17:02;;;;;;;355.62;178.70;;;;;;;1.23;93.51;98730.50;4356179;80;21193;-89
2021/01/03 20:23:04;;;;;;;295.18;147.70;;;;;;;1.23;93.51;98730.50;4364650;79;21181;-88
2021/01/03 20:29:05;;;;;;;245.48;122.28;;;;;;;1.21;93.15;98734.86;4360593;80;21307;-89
2021/01/03 20:35:09;;;;;;;249.75;123.45;;;;;;;1.11;92.81;98742.50;4368485;80;21677;-90
2021/01/03 20:41:15;;;;;;;276.75;137.18;;;;;;;1.00;93.19;98729.11;4366352;79;21610;-90
2021/01/03 20:47:20;;;;;;;291.87;142.70;;;;;;;1.08;93.07;98747.18;4349519;80;21655;-89
2021/01/03 20:53:22;;;;;;;276.80;142.20;;;;;;;1.05;93.15;98760.72;4366629;79;21189;-90
2021/01/03 20:59:24;;;;;;;265.32;137.18;;;;;;;1.07;93.15;98771.19;4363018;80;21161;-88
2021/01/03 21:05:25;;;;;;;266.30;136.03;;;;;;;1.14;93.44;98752.64;4364832;80;21392;-89
2021/01/03 21:11:27;;;;;;;262.88;128.93;;;;;;;1.10;93.32;98740.34;4363362;80;21331;-88
2021/01/03 21:17:28;;;;;;;266.23;124.07;;;;;;;1.16;93.60;98762.56;4365644;80;21195;-88
2021/01/03 21:23:30;;;;;;;244.50;121.07;;;;;;;1.16;93.60;98762.56;4359414;80;21137;-89
2021/01/03 21:29:40;;;;;;;271.70;128.10;;;;;;;1.24;93.49;98769.81;4360478;80;21345;-89
2021/01/03 21:35:49;;;;;;;276.77;127.22;;;;;;;1.34;93.79;98779.74;4324240;81;21177;-90
2021/01/03 21:41:56;;;;;;;241.10;121.42;;;;;;;1.34;93.27;98779.74;4335422;81;21358;-89
2021/01/03 21:48:09;;;;;;;237.17;117.13;;;;;;;1.34;93.24;98795.13;4306699;81;21634;-89
2021/01/03 21:54:37;;;;;;;255.15;125.60;;;;;;;1.22;93.36;98779.58;4332600;79;21463;-89
2021/01/03 22:01:33;;;;;;;237.02;122.05;;;;;;;1.37;93.50;98794.48;4348667;80;21576;-90
2021/01/03 22:08:02;;;;;;;250.07;121.42;;;;;;;1.34;93.26;98800.52;4347262;80;21186;-90
2021/01/03 22:14:30;;;;;;;237.82;120.57;;;;;;;1.11;93.19;98801.80;4356105;80;21179;-90
2021/01/03 22:20:40;;;;;;;265.85;130.80;;;;;;;1.22;93.12;98830.81;4350392;80;21304;-91
2021/01/03 22:26:45;;;;;;;273.43;136.43;;;;;;;1.17;93.24;98834.23;4353731;80;21114;-89
2021/01/03 22:33:16;;;;;;;259.62;130.18;;;;;;;1.14;93.46;98821.39;4352711;80;21215;-90
2021/01/03 22:39:32;;;;;;;288.40;141.92;;;;;;;1.16;93.25;98838.05;4348158;80;21191;-89
2021/01/03 22:45:58;;;;;;;266.25;128.97;;;;;;;1.24;93.40;98838.03;4348188;80;21797;-90
2021/01/03 22:52:36;;;;;;;287.60;139.57;;;;;;;1.11;93.62;98829.53;4339696;80;21556;-89
2021/01/03 22:59:04;;;;;;;285.65;140.45;;;;;;;1.11;93.62;98829.53;4351046;80;21611;-90
2021/01/03 23:05:39;;;;;;;268.05;129.42;;;;;;;1.20;93.73;98829.00;4353861;80;21173;-89
2021/01/03 23:12:25;;;;;;;277.70;137.15;;;;;;;1.32;93.62;98815.67;4346969;80;21191;-92
2021/01/03 23:18:51;;;;;;;273.03;136.90;;;;;;;1.19;93.35;98803.13;4348056;80;21177;-90
2021/01/03 23:25:16;;;;;;;276.07;139.65;;;;;;;1.08;93.30;98787.04;4586346;76;23392;-91
2021/01/03 23:31:21;;;;;;;273.02;132.52;;;;;;;1.08;93.30;98787.04;4302956;81;21602;-89
2021/01/03 23:37:54;;;;;;;291.27;140.03;;;;;;;1.12;93.42;98810.13;4389567;80;22299;-90
2021/01/03 23:44:13;;;;;;;279.80;134.90;;;;;;;1.07;93.24;98806.23;4348478;80;21465;-90
2021/01/03 23:50:41;;;;;;;242.20;122.98;;;;;;;1.03;93.22;98829.55;4348341;80;21868;-91
2021/01/03 23:57:03;;;;;;;251.10;124.18;;;;;;;0.74;93.04;98784.34;4298697;80;21119;-90
